sensor_id;sensor_type;location;lat;lon;timestamp;temperature;humidity
77985;DHT22;67177;47.240;-1.546;2023-04-15T00:01:24;10.30;70.20
77985;DHT22;67177;47.240;-1.546;2023-04-15T00:03:51;10.20;70.10
77985;DHT22;67177;47.240;-1.546;2023-04-15T00:06:18;10.20;70.20
77985;DHT22;67177;47.240;-1.546;2023-04-15T00:08:47;10.20;70.20
77985;DHT22;67177;47.240;-1.546;2023-04-15T00:11:13;10.20;70.20
77985;DHT22;67177;47.240;-1.546;2023-04-15T00:13:39;10.20;70.20
77985;DHT22;67177;47.240;-1.546;2023-04-15T00:16:06;10.10;70.20
77985;DHT22;67177;47.240;-1.546;2023-04-15T00:18:33;10.10;70.20
77985;DHT22;67177;47.240;-1.546;2023-04-15T00:20:59;10.10;70.40
77985;DHT22;67177;47.240;-1.546;2023-04-15T00:23:25;10.10;70.30
77985;DHT22;67177;47.240;-1.546;2023-04-15T00:25:51;10.10;70.40
77985;DHT22;67177;47.240;-1.546;2023-04-15T00:28:17;10.00;70.20
77985;DHT22;67177;47.240;-1.546;2023-04-15T00:30:43;10.00;70.30
77985;DHT22;67177;47.240;-1.546;2023-04-15T00:33:09;10.00;70.40
77985;DHT22;67177;47.240;-1.546;2023-04-15T00:35:35;10.00;70.40
77985;DHT22;67177;47.240;-1.546;2023-04-15T00:38:02;10.00;70.30
77985;DHT22;67177;47.240;-1.546;2023-04-15T00:40:29;9.90;70.30
77985;DHT22;67177;47.240;-1.546;2023-04-15T00:42:55;9.90;70.30
77985;DHT22;67177;47.240;-1.546;2023-04-15T00:45:20;9.90;70.30
77985;DHT22;67177;47.240;-1.546;2023-04-15T00:47:46;9.90;70.20
77985;DHT22;67177;47.240;-1.546;2023-04-15T00:50:12;9.90;70.20
77985;DHT22;67177;47.240;-1.546;2023-04-15T00:52:38;9.80;70.20
77985;DHT22;67177;47.240;-1.546;2023-04-15T00:55:05;9.80;70.00
77985;DHT22;67177;47.240;-1.546;2023-04-15T00:57:31;9.80;69.80
77985;DHT22;67177;47.240;-1.546;2023-04-15T00:59:57;9.80;69.80
77985;DHT22;67177;47.240;-1.546;2023-04-15T01:02:23;9.70;69.80
77985;DHT22;67177;47.240;-1.546;2023-04-15T01:04:49;9.70;69.80
77985;DHT22;67177;47.240;-1.546;2023-04-15T01:07:15;9.70;69.70
77985;DHT22;67177;47.240;-1.546;2023-04-15T01:09:42;9.70;69.80
77985;DHT22;67177;47.240;-1.546;2023-04-15T01:12:11;9.70;69.80
77985;DHT22;67177;47.240;-1.546;2023-04-15T01:14:36;9.60;69.70
77985;DHT22;67177;47.240;-1.546;2023-04-15T01:17:02;9.60;69.60
77985;DHT22;67177;47.240;-1.546;2023-04-15T01:19:28;9.60;69.60
77985;DHT22;67177;47.240;-1.546;2023-04-15T01:21:54;9.60;69.40
77985;DHT22;67177;47.240;-1.546;2023-04-15T01:24:20;9.60;69.40
77985;DHT22;67177;47.240;-1.546;2023-04-15T01:26:47;9.60;69.10
77985;DHT22;67177;47.240;-1.546;2023-04-15T01:29:14;9.60;69.10
77985;DHT22;67177;47.240;-1.546;2023-04-15T01:31:40;9.60;68.90
77985;DHT22;67177;47.240;-1.546;2023-04-15T01:34:06;9.60;68.90
77985;DHT22;67177;47.240;-1.546;2023-04-15T01:36:31;9.50;68.70
77985;DHT22;67177;47.240;-1.546;2023-04-15T01:38:58;9.50;68.80
77985;DHT22;67177;47.240;-1.546;2023-04-15T01:41:27;9.50;68.90
77985;DHT22;67177;47.240;-1.546;2023-04-15T01:43:53;9.50;69.00
77985;DHT22;67177;47.240;-1.546;2023-04-15T01:46:19;9.40;68.90
77985;DHT22;67177;47.240;-1.546;2023-04-15T01:48:45;9.40;68.90
77985;DHT22;67177;47.240;-1.546;2023-04-15T01:51:11;9.40;68.80
77985;DHT22;67177;47.240;-1.546;2023-04-15T01:53:37;9.30;69.00
77985;DHT22;67177;47.240;-1.546;2023-04-15T01:56:03;9.30;69.10
77985;DHT22;67177;47.240;-1.546;2023-04-15T01:58:29;9.30;69.10
77985;DHT22;67177;47.240;-1.546;2023-04-15T02:00:54;9.30;69.20
77985;DHT22;67177;47.240;-1.546;2023-04-15T02:03:20;9.30;69.10
77985;DHT22;67177;47.240;-1.546;2023-04-15T02:05:46;9.20;69.10
77985;DHT22;67177;47.240;-1.546;2023-04-15T02:08:11;9.20;69.20
77985;DHT22;67177;47.240;-1.546;2023-04-15T02:10:37;9.20;69.20
77985;DHT22;67177;47.240;-1.546;2023-04-15T02:13:03;9.10;69.20
77985;DHT22;67177;47.240;-1.546;2023-04-15T02:15:29;9.10;69.20
77985;DHT22;67177;47.240;-1.546;2023-04-15T02:17:55;9.10;69.20
77985;DHT22;67177;47.240;-1.546;2023-04-15T02:20:21;9.10;69.30
77985;DHT22;67177;47.240;-1.546;2023-04-15T02:22:48;9.00;69.30
77985;DHT22;67177;47.240;-1.546;2023-04-15T02:25:14;9.00;69.10
77985;DHT22;67177;47.240;-1.546;2023-04-15T02:27:41;9.00;69.10
77985;DHT22;67177;47.240;-1.546;2023-04-15T02:30:08;9.00;69.20
77985;DHT22;67177;47.240;-1.546;2023-04-15T02:32:34;9.00;69.10
77985;DHT22;67177;47.240;-1.546;2023-04-15T02:35:04;8.90;69.20
77985;DHT22;67177;47.240;-1.546;2023-04-15T02:37:30;8.90;69.10
77985;DHT22;67177;47.240;-1.546;2023-04-15T02:39:56;8.90;69.10
77985;DHT22;67177;47.240;-1.546;2023-04-15T02:42:22;8.90;69.00
77985;DHT22;67177;47.240;-1.546;2023-04-15T02:44:51;8.80;69.00
77985;DHT22;67177;47.240;-1.546;2023-04-15T02:47:19;8.80;69.10
77985;DHT22;67177;47.240;-1.546;2023-04-15T02:49:45;8.80;69.10
77985;DHT22;67177;47.240;-1.546;2023-04-15T02:52:10;8.80;69.20
77985;DHT22;67177;47.240;-1.546;2023-04-15T02:54:36;8.80;69.20
77985;DHT22;67177;47.240;-1.546;2023-04-15T02:57:02;8.80;69.10
77985;DHT22;67177;47.240;-1.546;2023-04-15T02:59:30;8.70;68.90
77985;DHT22;67177;47.240;-1.546;2023-04-15T03:01:56;8.70;68.90
77985;DHT22;67177;47.240;-1.546;2023-04-15T03:04:25;8.70;69.00
77985;DHT22;67177;47.240;-1.546;2023-04-15T03:06:51;8.70;69.10
77985;DHT22;67177;47.240;-1.546;2023-04-15T03:09:16;8.60;68.90
77985;DHT22;67177;47.240;-1.546;2023-04-15T03:11:42;8.60;69.10
77985;DHT22;67177;47.240;-1.546;2023-04-15T03:14:08;8.60;69.20
77985;DHT22;67177;47.240;-1.546;2023-04-15T03:16:33;8.60;69.10
77985;DHT22;67177;47.240;-1.546;2023-04-15T03:18:59;8.50;69.00
77985;DHT22;67177;47.240;-1.546;2023-04-15T03:21:25;8.50;69.00
77985;DHT22;67177;47.240;-1.546;2023-04-15T03:23:51;8.50;69.10
77985;DHT22;67177;47.240;-1.546;2023-04-15T03:26:27;8.50;69.20
77985;DHT22;67177;47.240;-1.546;2023-04-15T03:28:54;8.50;69.20
77985;DHT22;67177;47.240;-1.546;2023-04-15T03:31:20;8.50;69.20
77985;DHT22;67177;47.240;-1.546;2023-04-15T03:33:45;8.40;69.20
77985;DHT22;67177;47.240;-1.546;2023-04-15T03:36:11;8.40;69.20
77985;DHT22;67177;47.240;-1.546;2023-04-15T03:38:36;8.40;69.20
77985;DHT22;67177;47.240;-1.546;2023-04-15T03:41:02;8.40;69.30
77985;DHT22;67177;47.240;-1.546;2023-04-15T03:43:28;8.30;69.30
77985;DHT22;67177;47.240;-1.546;2023-04-15T03:45:53;8.30;69.30
77985;DHT22;67177;47.240;-1.546;2023-04-15T03:48:19;8.30;69.40
77985;DHT22;67177;47.240;-1.546;2023-04-15T03:50:45;8.30;69.50
77985;DHT22;67177;47.240;-1.546;2023-04-15T03:53:11;8.30;69.60
77985;DHT22;67177;47.240;-1.546;2023-04-15T03:55:37;8.30;69.60
77985;DHT22;67177;47.240;-1.546;2023-04-15T03:58:02;8.20;69.60
77985;DHT22;67177;47.240;-1.546;2023-04-15T04:00:28;8.30;69.70
77985;DHT22;67177;47.240;-1.546;2023-04-15T04:02:53;8.20;69.70
77985;DHT22;67177;47.240;-1.546;2023-04-15T04:05:19;8.20;69.80
77985;DHT22;67177;47.240;-1.546;2023-04-15T04:07:45;8.20;69.80
77985;DHT22;67177;47.240;-1.546;2023-04-15T04:10:10;8.20;69.90
77985;DHT22;67177;47.240;-1.546;2023-04-15T04:12:36;8.20;69.90
77985;DHT22;67177;47.240;-1.546;2023-04-15T04:15:02;8.20;69.90
77985;DHT22;67177;47.240;-1.546;2023-04-15T04:17:28;8.20;70.10
77985;DHT22;67177;47.240;-1.546;2023-04-15T04:19:53;8.20;70.10
77985;DHT22;67177;47.240;-1.546;2023-04-15T04:22:22;8.10;70.10
77985;DHT22;67177;47.240;-1.546;2023-04-15T04:24:49;8.10;70.20
77985;DHT22;67177;47.240;-1.546;2023-04-15T04:27:14;8.10;70.20
77985;DHT22;67177;47.240;-1.546;2023-04-15T04:29:40;8.10;70.30
77985;DHT22;67177;47.240;-1.546;2023-04-15T04:32:06;8.10;70.40
77985;DHT22;67177;47.240;-1.546;2023-04-15T04:34:32;8.00;70.50
77985;DHT22;67177;47.240;-1.546;2023-04-15T04:36:57;8.00;70.50
77985;DHT22;67177;47.240;-1.546;2023-04-15T04:39:23;8.00;70.60
77985;DHT22;67177;47.240;-1.546;2023-04-15T04:41:49;8.00;70.70
77985;DHT22;67177;47.240;-1.546;2023-04-15T04:44:16;8.00;70.60
77985;DHT22;67177;47.240;-1.546;2023-04-15T04:46:42;8.00;70.70
77985;DHT22;67177;47.240;-1.546;2023-04-15T04:49:08;8.00;70.70
77985;DHT22;67177;47.240;-1.546;2023-04-15T04:51:33;8.00;70.70
77985;DHT22;67177;47.240;-1.546;2023-04-15T04:53:59;8.00;70.80
77985;DHT22;67177;47.240;-1.546;2023-04-15T04:56:25;8.00;70.80
77985;DHT22;67177;47.240;-1.546;2023-04-15T04:58:50;8.00;70.80
77985;DHT22;67177;47.240;-1.546;2023-04-15T05:01:16;8.00;70.90
77985;DHT22;67177;47.240;-1.546;2023-04-15T05:03:42;7.90;71.00
77985;DHT22;67177;47.240;-1.546;2023-04-15T05:06:07;8.00;71.10
77985;DHT22;67177;47.240;-1.546;2023-04-15T05:08:33;7.90;71.10
77985;DHT22;67177;47.240;-1.546;2023-04-15T05:10:59;7.90;71.20
77985;DHT22;67177;47.240;-1.546;2023-04-15T05:13:25;7.90;71.10
77985;DHT22;67177;47.240;-1.546;2023-04-15T05:15:51;8.00;71.20
77985;DHT22;67177;47.240;-1.546;2023-04-15T05:18:17;7.90;71.30
77985;DHT22;67177;47.240;-1.546;2023-04-15T05:20:43;7.90;71.30
77985;DHT22;67177;47.240;-1.546;2023-04-15T05:23:08;7.90;71.20
77985;DHT22;67177;47.240;-1.546;2023-04-15T05:25:34;7.90;71.30
77985;DHT22;67177;47.240;-1.546;2023-04-15T05:28:00;7.90;71.30
77985;DHT22;67177;47.240;-1.546;2023-04-15T05:30:25;7.90;71.40
77985;DHT22;67177;47.240;-1.546;2023-04-15T05:32:51;7.90;71.50
77985;DHT22;67177;47.240;-1.546;2023-04-15T05:35:17;7.90;71.40
77985;DHT22;67177;47.240;-1.546;2023-04-15T05:37:43;7.90;71.50
77985;DHT22;67177;47.240;-1.546;2023-04-15T05:40:09;7.90;71.60
77985;DHT22;67177;47.240;-1.546;2023-04-15T05:42:35;7.90;71.60
77985;DHT22;67177;47.240;-1.546;2023-04-15T05:45:01;7.90;71.70
77985;DHT22;67177;47.240;-1.546;2023-04-15T05:47:30;7.90;71.70
77985;DHT22;67177;47.240;-1.546;2023-04-15T05:49:56;7.90;71.70
77985;DHT22;67177;47.240;-1.546;2023-04-15T05:52:23;7.90;71.80
77985;DHT22;67177;47.240;-1.546;2023-04-15T05:54:48;7.90;71.90
77985;DHT22;67177;47.240;-1.546;2023-04-15T05:57:15;7.90;72.00
77985;DHT22;67177;47.240;-1.546;2023-04-15T05:59:40;7.90;72.10
77985;DHT22;67177;47.240;-1.546;2023-04-15T06:02:07;7.90;72.10
77985;DHT22;67177;47.240;-1.546;2023-04-15T06:04:34;7.90;72.20
77985;DHT22;67177;47.240;-1.546;2023-04-15T06:06:59;8.00;72.30
77985;DHT22;67177;47.240;-1.546;2023-04-15T06:09:25;8.00;72.30
77985;DHT22;67177;47.240;-1.546;2023-04-15T06:11:51;8.00;72.40
77985;DHT22;67177;47.240;-1.546;2023-04-15T06:14:17;8.00;72.40
77985;DHT22;67177;47.240;-1.546;2023-04-15T06:16:43;8.00;72.60
77985;DHT22;67177;47.240;-1.546;2023-04-15T06:19:08;8.10;72.60
77985;DHT22;67177;47.240;-1.546;2023-04-15T06:21:35;8.10;72.60
77985;DHT22;67177;47.240;-1.546;2023-04-15T06:24:01;8.20;72.70
77985;DHT22;67177;47.240;-1.546;2023-04-15T06:26:27;8.20;72.70
77985;DHT22;67177;47.240;-1.546;2023-04-15T06:28:53;8.20;72.80
77985;DHT22;67177;47.240;-1.546;2023-04-15T06:31:19;8.30;72.90
77985;DHT22;67177;47.240;-1.546;2023-04-15T06:33:45;8.30;72.80
77985;DHT22;67177;47.240;-1.546;2023-04-15T06:36:11;8.40;72.70
77985;DHT22;67177;47.240;-1.546;2023-04-15T06:38:36;8.40;72.70
77985;DHT22;67177;47.240;-1.546;2023-04-15T06:41:03;8.40;72.70
77985;DHT22;67177;47.240;-1.546;2023-04-15T06:43:29;8.50;72.80
77985;DHT22;67177;47.240;-1.546;2023-04-15T06:45:55;8.60;72.70
77985;DHT22;67177;47.240;-1.546;2023-04-15T06:48:21;8.60;72.60
77985;DHT22;67177;47.240;-1.546;2023-04-15T06:50:48;8.70;72.60
77985;DHT22;67177;47.240;-1.546;2023-04-15T06:53:14;8.70;72.70
77985;DHT22;67177;47.240;-1.546;2023-04-15T06:55:40;8.80;72.60
77985;DHT22;67177;47.240;-1.546;2023-04-15T06:58:06;8.80;72.50
77985;DHT22;67177;47.240;-1.546;2023-04-15T07:00:32;8.90;72.50
77985;DHT22;67177;47.240;-1.546;2023-04-15T07:02:59;9.00;72.50
77985;DHT22;67177;47.240;-1.546;2023-04-15T07:05:28;9.00;72.50
77985;DHT22;67177;47.240;-1.546;2023-04-15T07:07:54;9.10;72.50
77985;DHT22;67177;47.240;-1.546;2023-04-15T07:10:20;9.20;72.20
77985;DHT22;67177;47.240;-1.546;2023-04-15T07:12:47;9.20;72.00
77985;DHT22;67177;47.240;-1.546;2023-04-15T07:15:12;9.30;71.80
77985;DHT22;67177;47.240;-1.546;2023-04-15T07:17:40;9.40;71.70
77985;DHT22;67177;47.240;-1.546;2023-04-15T07:20:06;9.50;71.50
77985;DHT22;67177;47.240;-1.546;2023-04-15T07:22:32;9.50;71.50
77985;DHT22;67177;47.240;-1.546;2023-04-15T07:24:58;9.60;71.30
77985;DHT22;67177;47.240;-1.546;2023-04-15T07:27:24;9.70;71.00
77985;DHT22;67177;47.240;-1.546;2023-04-15T07:29:50;9.80;70.80
77985;DHT22;67177;47.240;-1.546;2023-04-15T07:32:17;9.90;70.60
77985;DHT22;67177;47.240;-1.546;2023-04-15T07:34:43;10.00;70.60
77985;DHT22;67177;47.240;-1.546;2023-04-15T07:37:08;10.00;70.50
77985;DHT22;67177;47.240;-1.546;2023-04-15T07:39:34;10.10;70.60
77985;DHT22;67177;47.240;-1.546;2023-04-15T07:42:00;10.20;70.50
77985;DHT22;67177;47.240;-1.546;2023-04-15T07:44:26;10.30;70.10
77985;DHT22;67177;47.240;-1.546;2023-04-15T07:46:52;10.30;69.70
77985;DHT22;67177;47.240;-1.546;2023-04-15T07:49:18;10.40;69.70
77985;DHT22;67177;47.240;-1.546;2023-04-15T07:51:45;10.50;69.40
77985;DHT22;67177;47.240;-1.546;2023-04-15T07:54:11;10.50;69.40
77985;DHT22;67177;47.240;-1.546;2023-04-15T07:56:37;10.60;68.90
77985;DHT22;67177;47.240;-1.546;2023-04-15T07:59:02;10.60;68.50
77985;DHT22;67177;47.240;-1.546;2023-04-15T08:01:30;10.70;67.40
77985;DHT22;67177;47.240;-1.546;2023-04-15T08:03:57;10.80;67.40
77985;DHT22;67177;47.240;-1.546;2023-04-15T08:06:23;10.80;67.40
77985;DHT22;67177;47.240;-1.546;2023-04-15T08:08:49;10.80;67.50
77985;DHT22;67177;47.240;-1.546;2023-04-15T08:11:15;10.90;67.50
77985;DHT22;67177;47.240;-1.546;2023-04-15T08:13:41;10.90;67.40
77985;DHT22;67177;47.240;-1.546;2023-04-15T08:16:21;11.00;67.30
77985;DHT22;67177;47.240;-1.546;2023-04-15T08:18:48;11.00;67.50
77985;DHT22;67177;47.240;-1.546;2023-04-15T08:21:15;11.00;67.60
77985;DHT22;67177;47.240;-1.546;2023-04-15T08:23:41;11.10;67.00
77985;DHT22;67177;47.240;-1.546;2023-04-15T08:26:08;11.10;65.70
77985;DHT22;67177;47.240;-1.546;2023-04-15T08:28:33;11.20;64.90
77985;DHT22;67177;47.240;-1.546;2023-04-15T08:30:59;11.20;65.10
77985;DHT22;67177;47.240;-1.546;2023-04-15T08:33:25;11.30;65.10
77985;DHT22;67177;47.240;-1.546;2023-04-15T08:35:50;11.30;65.00
77985;DHT22;67177;47.240;-1.546;2023-04-15T08:38:16;11.40;64.90
77985;DHT22;67177;47.240;-1.546;2023-04-15T08:40:44;11.40;64.90
77985;DHT22;67177;47.240;-1.546;2023-04-15T08:43:20;11.40;64.70
77985;DHT22;67177;47.240;-1.546;2023-04-15T08:45:47;11.40;65.10
77985;DHT22;67177;47.240;-1.546;2023-04-15T08:48:16;11.50;64.40
77985;DHT22;67177;47.240;-1.546;2023-04-15T08:50:42;11.50;64.40
77985;DHT22;67177;47.240;-1.546;2023-04-15T08:53:09;11.60;64.20
77985;DHT22;67177;47.240;-1.546;2023-04-15T08:55:44;11.60;64.20
77985;DHT22;67177;47.240;-1.546;2023-04-15T08:58:14;11.60;63.70
77985;DHT22;67177;47.240;-1.546;2023-04-15T09:00:40;11.70;63.30
77985;DHT22;67177;47.240;-1.546;2023-04-15T09:03:07;11.70;63.60
77985;DHT22;67177;47.240;-1.546;2023-04-15T09:05:36;11.80;62.60
77985;DHT22;67177;47.240;-1.546;2023-04-15T09:08:03;11.80;62.40
77985;DHT22;67177;47.240;-1.546;2023-04-15T09:10:30;11.90;62.60
77985;DHT22;67177;47.240;-1.546;2023-04-15T09:12:56;11.90;62.60
77985;DHT22;67177;47.240;-1.546;2023-04-15T09:15:24;12.00;62.50
77985;DHT22;67177;47.240;-1.546;2023-04-15T09:17:52;12.00;62.20
77985;DHT22;67177;47.240;-1.546;2023-04-15T09:20:17;12.00;62.10
77985;DHT22;67177;47.240;-1.546;2023-04-15T09:22:45;12.10;62.30
77985;DHT22;67177;47.240;-1.546;2023-04-15T09:27:59;12.20;62.00
77985;DHT22;67177;47.240;-1.546;2023-04-15T09:30:26;12.50;61.20
77985;DHT22;67177;47.240;-1.546;2023-04-15T09:32:54;12.50;61.30
77985;DHT22;67177;47.240;-1.546;2023-04-15T09:35:21;12.60;60.10
77985;DHT22;67177;47.240;-1.546;2023-04-15T09:37:51;12.60;59.20
77985;DHT22;67177;47.240;-1.546;2023-04-15T09:43:01;12.80;59.60
77985;DHT22;67177;47.240;-1.546;2023-04-15T09:45:28;13.00;59.40
77985;DHT22;67177;47.240;-1.546;2023-04-15T09:47:54;13.20;58.40
77985;DHT22;67177;47.240;-1.546;2023-04-15T09:50:20;13.30;57.30
77985;DHT22;67177;47.240;-1.546;2023-04-15T09:52:46;13.30;56.80
77985;DHT22;67177;47.240;-1.546;2023-04-15T09:55:13;13.40;56.50
77985;DHT22;67177;47.240;-1.546;2023-04-15T09:57:40;13.60;56.90
77985;DHT22;67177;47.240;-1.546;2023-04-15T10:00:07;13.70;57.10
77985;DHT22;67177;47.240;-1.546;2023-04-15T10:02:36;13.70;57.00
77985;DHT22;67177;47.240;-1.546;2023-04-15T10:05:02;13.80;56.50
77985;DHT22;67177;47.240;-1.546;2023-04-15T10:07:28;14.00;55.90
77985;DHT22;67177;47.240;-1.546;2023-04-15T10:09:55;14.20;55.50
77985;DHT22;67177;47.240;-1.546;2023-04-15T10:12:21;14.20;55.90
77985;DHT22;67177;47.240;-1.546;2023-04-15T10:14:59;14.30;55.70
77985;DHT22;67177;47.240;-1.546;2023-04-15T10:17:29;14.20;55.10
77985;DHT22;67177;47.240;-1.546;2023-04-15T10:20:00;14.10;55.10
77985;DHT22;67177;47.240;-1.546;2023-04-15T10:22:27;14.30;55.70
77985;DHT22;67177;47.240;-1.546;2023-04-15T10:24:55;14.20;55.90
77985;DHT22;67177;47.240;-1.546;2023-04-15T10:27:21;14.30;55.40
77985;DHT22;67177;47.240;-1.546;2023-04-15T10:29:49;14.40;54.30
77985;DHT22;67177;47.240;-1.546;2023-04-15T10:32:18;14.20;53.90
77985;DHT22;67177;47.240;-1.546;2023-04-15T10:34:46;14.10;54.20
77985;DHT22;67177;47.240;-1.546;2023-04-15T10:37:32;14.00;54.40
77985;DHT22;67177;47.240;-1.546;2023-04-15T10:39:58;14.20;54.00
77985;DHT22;67177;47.240;-1.546;2023-04-15T10:42:23;14.30;54.50
77985;DHT22;67177;47.240;-1.546;2023-04-15T10:44:50;14.50;54.70
77985;DHT22;67177;47.240;-1.546;2023-04-15T10:47:19;14.50;54.60
77985;DHT22;67177;47.240;-1.546;2023-04-15T10:52:16;14.50;52.50
77985;DHT22;67177;47.240;-1.546;2023-04-15T10:54:43;14.40;53.10
77985;DHT22;67177;47.240;-1.546;2023-04-15T10:57:14;14.50;52.80
77985;DHT22;67177;47.240;-1.546;2023-04-15T11:00:11;14.60;52.90
77985;DHT22;67177;47.240;-1.546;2023-04-15T11:02:56;14.90;52.60
77985;DHT22;67177;47.240;-1.546;2023-04-15T11:08:07;14.90;52.30
77985;DHT22;67177;47.240;-1.546;2023-04-15T11:12:59;14.70;52.20
77985;DHT22;67177;47.240;-1.546;2023-04-15T11:18:07;15.10;50.10
77985;DHT22;67177;47.240;-1.546;2023-04-15T11:20:33;15.30;49.00
77985;DHT22;67177;47.240;-1.546;2023-04-15T11:22:59;15.50;49.10
77985;DHT22;67177;47.240;-1.546;2023-04-15T11:25:26;15.40;50.00
77985;DHT22;67177;47.240;-1.546;2023-04-15T11:27:53;15.50;50.40
77985;DHT22;67177;47.240;-1.546;2023-04-15T11:30:23;15.40;50.30
77985;DHT22;67177;47.240;-1.546;2023-04-15T11:32:51;15.40;50.70
77985;DHT22;67177;47.240;-1.546;2023-04-15T11:35:17;15.20;51.00
77985;DHT22;67177;47.240;-1.546;2023-04-15T11:37:44;15.20;51.20
77985;DHT22;67177;47.240;-1.546;2023-04-15T11:40:11;15.40;50.10
77985;DHT22;67177;47.240;-1.546;2023-04-15T11:42:37;15.60;50.30
77985;DHT22;67177;47.240;-1.546;2023-04-15T11:45:10;15.50;50.30
77985;DHT22;67177;47.240;-1.546;2023-04-15T11:47:37;15.50;50.70
77985;DHT22;67177;47.240;-1.546;2023-04-15T11:50:33;15.50;50.50
77985;DHT22;67177;47.240;-1.546;2023-04-15T11:53:01;15.30;50.60
77985;DHT22;67177;47.240;-1.546;2023-04-15T11:55:27;15.10;49.90
77985;DHT22;67177;47.240;-1.546;2023-04-15T11:58:09;15.00;50.30
77985;DHT22;67177;47.240;-1.546;2023-04-15T12:00:35;14.90;51.00
77985;DHT22;67177;47.240;-1.546;2023-04-15T12:03:24;14.90;51.30
77985;DHT22;67177;47.240;-1.546;2023-04-15T12:06:06;14.90;50.40
77985;DHT22;67177;47.240;-1.546;2023-04-15T12:11:29;15.20;48.30
77985;DHT22;67177;47.240;-1.546;2023-04-15T12:14:01;15.40;48.50
77985;DHT22;67177;47.240;-1.546;2023-04-15T12:16:28;15.40;49.00
77985;DHT22;67177;47.240;-1.546;2023-04-15T12:18:55;15.40;49.00
77985;DHT22;67177;47.240;-1.546;2023-04-15T12:21:24;15.40;49.30
77985;DHT22;67177;47.240;-1.546;2023-04-15T12:23:51;15.50;49.60
77985;DHT22;67177;47.240;-1.546;2023-04-15T12:26:18;15.50;49.60
77985;DHT22;67177;47.240;-1.546;2023-04-15T12:28:55;15.40;49.10
77985;DHT22;67177;47.240;-1.546;2023-04-15T12:31:25;15.30;47.80
77985;DHT22;67177;47.240;-1.546;2023-04-15T12:33:50;15.30;47.60
77985;DHT22;67177;47.240;-1.546;2023-04-15T12:36:16;15.50;47.90
77985;DHT22;67177;47.240;-1.546;2023-04-15T12:38:41;15.80;46.90
77985;DHT22;67177;47.240;-1.546;2023-04-15T12:41:07;16.10;47.00
77985;DHT22;67177;47.240;-1.546;2023-04-15T12:43:33;16.30;46.40
77985;DHT22;67177;47.240;-1.546;2023-04-15T12:45:58;16.30;44.10
77985;DHT22;67177;47.240;-1.546;2023-04-15T12:48:24;16.30;44.20
77985;DHT22;67177;47.240;-1.546;2023-04-15T12:50:50;16.60;43.80
77985;DHT22;67177;47.240;-1.546;2023-04-15T12:53:16;16.60;43.80
77985;DHT22;67177;47.240;-1.546;2023-04-15T12:55:41;16.40;42.70
77985;DHT22;67177;47.240;-1.546;2023-04-15T12:58:07;16.20;42.30
77985;DHT22;67177;47.240;-1.546;2023-04-15T13:00:33;16.20;42.20
77985;DHT22;67177;47.240;-1.546;2023-04-15T13:02:59;16.10;42.30
77985;DHT22;67177;47.240;-1.546;2023-04-15T13:05:25;16.00;42.90
77985;DHT22;67177;47.240;-1.546;2023-04-15T13:07:54;16.00;42.90
77985;DHT22;67177;47.240;-1.546;2023-04-15T13:10:20;16.00;42.00
77985;DHT22;67177;47.240;-1.546;2023-04-15T13:12:48;16.10;42.00
77985;DHT22;67177;47.240;-1.546;2023-04-15T13:15:14;16.10;42.70
77985;DHT22;67177;47.240;-1.546;2023-04-15T13:17:43;16.10;42.00
77985;DHT22;67177;47.240;-1.546;2023-04-15T13:20:09;16.20;40.90
77985;DHT22;67177;47.240;-1.546;2023-04-15T13:22:35;16.20;41.40
77985;DHT22;67177;47.240;-1.546;2023-04-15T13:25:00;16.10;42.20
77985;DHT22;67177;47.240;-1.546;2023-04-15T13:27:26;16.10;42.40
77985;DHT22;67177;47.240;-1.546;2023-04-15T13:29:53;16.00;42.70
77985;DHT22;67177;47.240;-1.546;2023-04-15T13:32:19;16.10;42.60
77985;DHT22;67177;47.240;-1.546;2023-04-15T13:34:44;16.00;43.00
77985;DHT22;67177;47.240;-1.546;2023-04-15T13:37:10;16.00;43.00
77985;DHT22;67177;47.240;-1.546;2023-04-15T13:39:36;16.00;42.20
77985;DHT22;67177;47.240;-1.546;2023-04-15T13:42:02;15.90;42.60
77985;DHT22;67177;47.240;-1.546;2023-04-15T13:44:28;15.90;42.60
77985;DHT22;67177;47.240;-1.546;2023-04-15T13:46:53;15.80;41.90
77985;DHT22;67177;47.240;-1.546;2023-04-15T13:49:19;15.80;42.00
77985;DHT22;67177;47.240;-1.546;2023-04-15T13:51:45;15.90;41.90
77985;DHT22;67177;47.240;-1.546;2023-04-15T13:54:11;15.80;41.50
77985;DHT22;67177;47.240;-1.546;2023-04-15T13:56:36;15.80;41.40
77985;DHT22;67177;47.240;-1.546;2023-04-15T13:59:02;15.80;42.00
77985;DHT22;67177;47.240;-1.546;2023-04-15T14:01:28;15.80;41.60
77985;DHT22;67177;47.240;-1.546;2023-04-15T14:03:54;15.90;41.40
77985;DHT22;67177;47.240;-1.546;2023-04-15T14:06:29;15.90;41.00
77985;DHT22;67177;47.240;-1.546;2023-04-15T14:08:55;15.90;40.40
77985;DHT22;67177;47.240;-1.546;2023-04-15T14:11:21;15.90;40.20
77985;DHT22;67177;47.240;-1.546;2023-04-15T14:13:47;15.90;40.40
77985;DHT22;67177;47.240;-1.546;2023-04-15T14:16:12;15.90;40.60
77985;DHT22;67177;47.240;-1.546;2023-04-15T14:18:39;16.10;40.70
77985;DHT22;67177;47.240;-1.546;2023-04-15T14:21:05;16.40;40.00
77985;DHT22;67177;47.240;-1.546;2023-04-15T14:23:31;16.60;40.30
77985;DHT22;67177;47.240;-1.546;2023-04-15T14:25:57;16.70;40.70
77985;DHT22;67177;47.240;-1.546;2023-04-15T14:28:23;16.70;40.60
77985;DHT22;67177;47.240;-1.546;2023-04-15T14:30:49;16.60;40.10
77985;DHT22;67177;47.240;-1.546;2023-04-15T14:33:14;16.50;40.10
77985;DHT22;67177;47.240;-1.546;2023-04-15T14:35:40;16.40;40.50
77985;DHT22;67177;47.240;-1.546;2023-04-15T14:38:06;16.20;41.10
77985;DHT22;67177;47.240;-1.546;2023-04-15T14:40:35;16.00;41.50
77985;DHT22;67177;47.240;-1.546;2023-04-15T14:43:01;16.00;41.70
77985;DHT22;67177;47.240;-1.546;2023-04-15T14:45:26;15.90;41.60
77985;DHT22;67177;47.240;-1.546;2023-04-15T14:47:52;15.90;41.70
77985;DHT22;67177;47.240;-1.546;2023-04-15T14:50:18;15.90;42.30
77985;DHT22;67177;47.240;-1.546;2023-04-15T14:52:44;15.90;42.30
77985;DHT22;67177;47.240;-1.546;2023-04-15T14:55:10;15.90;42.50
77985;DHT22;67177;47.240;-1.546;2023-04-15T14:57:37;15.90;42.70
77985;DHT22;67177;47.240;-1.546;2023-04-15T15:00:04;15.90;43.00
77985;DHT22;67177;47.240;-1.546;2023-04-15T15:02:32;15.90;43.00
77985;DHT22;67177;47.240;-1.546;2023-04-15T15:04:59;15.90;42.80
77985;DHT22;67177;47.240;-1.546;2023-04-15T15:07:25;15.90;42.80
77985;DHT22;67177;47.240;-1.546;2023-04-15T15:09:51;15.90;42.70
77985;DHT22;67177;47.240;-1.546;2023-04-15T15:12:17;15.80;42.70
77985;DHT22;67177;47.240;-1.546;2023-04-15T15:14:43;15.80;42.70
77985;DHT22;67177;47.240;-1.546;2023-04-15T15:17:09;15.80;42.80
77985;DHT22;67177;47.240;-1.546;2023-04-15T15:19:34;15.70;42.50
77985;DHT22;67177;47.240;-1.546;2023-04-15T15:22:00;15.70;42.50
77985;DHT22;67177;47.240;-1.546;2023-04-15T15:24:26;15.70;42.80
77985;DHT22;67177;47.240;-1.546;2023-04-15T15:26:51;15.70;42.40
77985;DHT22;67177;47.240;-1.546;2023-04-15T15:29:17;15.70;42.20
77985;DHT22;67177;47.240;-1.546;2023-04-15T15:31:43;15.60;42.00
77985;DHT22;67177;47.240;-1.546;2023-04-15T15:34:08;15.60;41.90
77985;DHT22;67177;47.240;-1.546;2023-04-15T15:36:34;15.60;42.10
77985;DHT22;67177;47.240;-1.546;2023-04-15T15:39:00;15.60;42.30